sensor_id;sensor_type;location;lat;lon;timestamp;P1;durP1;ratioP1;P2;durP2;ratioP2
35907;SDS011;22003;50.320;8.054;2022-10-16T00:42:09;6.03;;;1.20;;
35907;SDS011;22003;50.320;8.054;2022-10-16T00:44:44;2.70;;;0.98;;
35907;SDS011;22003;50.320;8.054;2022-10-16T00:47:21;3.50;;;1.10;;
35907;SDS011;22003;50.320;8.054;2022-10-16T00:52:37;1.25;;;1.15;;
35907;SDS011;22003;50.320;8.054;2022-10-16T00:55:05;8.88;;;1.10;;
35907;SDS011;22003;50.320;8.054;2022-10-16T00:57:31;4.90;;;1.25;;
35907;SDS011;22003;50.320;8.054;2022-10-16T00:59:56;6.18;;;1.08;;
35907;SDS011;22003;50.320;8.054;2022-10-16T01:02:22;3.05;;;1.10;;
35907;SDS011;22003;50.320;8.054;2022-10-16T01:04:48;2.53;;;0.98;;
35907;SDS011;22003;50.320;8.054;2022-10-16T01:07:20;2.22;;;0.85;;
35907;SDS011;22003;50.320;8.054;2022-10-16T01:14:57;0.80;;;0.80;;
35907;SDS011;22003;50.320;8.054;2022-10-16T01:22:58;1.73;;;0.82;;
35907;SDS011;22003;50.320;8.054;2022-10-16T01:28:16;6.45;;;1.00;;
35907;SDS011;22003;50.320;8.054;2022-10-16T01:30:43;0.93;;;0.90;;
35907;SDS011;22003;50.320;8.054;2022-10-16T01:36:02;3.30;;;1.00;;
35907;SDS011;22003;50.320;8.054;2022-10-16T01:38:35;4.05;;;1.60;;
35907;SDS011;22003;50.320;8.054;2022-10-16T01:41:04;3.80;;;1.08;;
35907;SDS011;22003;50.320;8.054;2022-10-16T01:43:51;1.75;;;1.00;;
35907;SDS011;22003;50.320;8.054;2022-10-16T01:46:19;1.73;;;1.02;;
35907;SDS011;22003;50.320;8.054;2022-10-16T01:48:47;21.13;;;1.45;;
35907;SDS011;22003;50.320;8.054;2022-10-16T01:51:13;3.15;;;1.17;;
35907;SDS011;22003;50.320;8.054;2022-10-16T01:53:39;2.63;;;1.00;;
35907;SDS011;22003;50.320;8.054;2022-10-16T01:56:07;5.50;;;1.30;;
35907;SDS011;22003;50.320;8.054;2022-10-16T01:59:06;1.83;;;1.10;;
35907;SDS011;22003;50.320;8.054;2022-10-16T02:41:50;6.85;;;1.00;;
35907;SDS011;22003;50.320;8.054;2022-10-16T02:44:40;1.17;;;0.70;;
35907;SDS011;22003;50.320;8.054;2022-10-16T02:47:06;0.57;;;0.57;;
35907;SDS011;22003;50.320;8.054;2022-10-16T02:49:31;2.88;;;0.77;;
35907;SDS011;22003;50.320;8.054;2022-10-16T02:51:56;2.25;;;1.00;;
35907;SDS011;22003;50.320;8.054;2022-10-16T02:54:25;6.47;;;0.80;;
35907;SDS011;22003;50.320;8.054;2022-10-16T02:56:50;3.22;;;1.00;;
35907;SDS011;22003;50.320;8.054;2022-10-16T02:59:16;1.67;;;1.00;;
35907;SDS011;22003;50.320;8.054;2022-10-16T03:01:42;0.82;;;0.70;;
35907;SDS011;22003;50.320;8.054;2022-10-16T03:04:11;2.92;;;0.95;;
35907;SDS011;22003;50.320;8.054;2022-10-16T03:07:29;0.65;;;0.52;;
35907;SDS011;22003;50.320;8.054;2022-10-16T03:10:15;0.75;;;0.75;;
35907;SDS011;22003;50.320;8.054;2022-10-16T03:15:17;1.50;;;1.08;;
35907;SDS011;22003;50.320;8.054;2022-10-16T03:17:43;2.60;;;0.95;;
35907;SDS011;22003;50.320;8.054;2022-10-16T03:20:51;1.33;;;0.88;;
35907;SDS011;22003;50.320;8.054;2022-10-16T03:27:10;1.35;;;0.63;;
35907;SDS011;22003;50.320;8.054;2022-10-16T03:36:27;2.70;;;0.90;;
35907;SDS011;22003;50.320;8.054;2022-10-16T03:38:53;1.75;;;0.82;;
35907;SDS011;22003;50.320;8.054;2022-10-16T03:43:55;3.67;;;0.63;;
35907;SDS011;22003;50.320;8.054;2022-10-16T03:46:20;1.65;;;0.70;;
35907;SDS011;22003;50.320;8.054;2022-10-16T03:48:46;2.03;;;0.60;;
35907;SDS011;22003;50.320;8.054;2022-10-16T03:51:11;1.17;;;0.70;;
35907;SDS011;22003;50.320;8.054;2022-10-16T03:53:37;5.22;;;0.65;;
35907;SDS011;22003;50.320;8.054;2022-10-16T03:56:04;0.77;;;0.65;;
35907;SDS011;22003;50.320;8.054;2022-10-16T03:58:30;1.85;;;0.63;;
35907;SDS011;22003;50.320;8.054;2022-10-16T04:00:55;1.48;;;0.70;;
35907;SDS011;22003;50.320;8.054;2022-10-16T04:03:21;3.13;;;0.75;;
35907;SDS011;22003;50.320;8.054;2022-10-16T04:05:46;1.63;;;0.65;;
35907;SDS011;22003;50.320;8.054;2022-10-16T04:08:11;2.65;;;0.50;;
35907;SDS011;22003;50.320;8.054;2022-10-16T04:10:43;1.77;;;0.65;;
35907;SDS011;22003;50.320;8.054;2022-10-16T04:13:09;2.53;;;0.80;;
35907;SDS011;22003;50.320;8.054;2022-10-16T04:15:34;8.18;;;0.60;;
35907;SDS011;22003;50.320;8.054;2022-10-16T04:18:00;2.50;;;0.70;;
35907;SDS011;22003;50.320;8.054;2022-10-16T04:20:25;4.22;;;0.85;;
35907;SDS011;22003;50.320;8.054;2022-10-16T04:22:51;3.25;;;0.57;;
35907;SDS011;22003;50.320;8.054;2022-10-16T04:25:16;3.73;;;0.90;;
35907;SDS011;22003;50.320;8.054;2022-10-16T04:27:41;0.93;;;0.70;;
35907;SDS011;22003;50.320;8.054;2022-10-16T04:30:06;4.70;;;0.80;;
35907;SDS011;22003;50.320;8.054;2022-10-16T04:32:32;2.28;;;0.52;;
35907;SDS011;22003;50.320;8.054;2022-10-16T04:34:57;0.93;;;0.70;;
35907;SDS011;22003;50.320;8.054;2022-10-16T04:37:25;2.13;;;0.80;;
35907;SDS011;22003;50.320;8.054;2022-10-16T04:39:51;0.93;;;0.60;;
35907;SDS011;22003;50.320;8.054;2022-10-16T04:42:16;2.50;;;0.82;;
35907;SDS011;22003;50.320;8.054;2022-10-16T04:44:41;2.67;;;0.70;;
35907;SDS011;22003;50.320;8.054;2022-10-16T04:47:06;1.15;;;0.68;;
35907;SDS011;22003;50.320;8.054;2022-10-16T04:49:32;2.00;;;0.77;;
35907;SDS011;22003;50.320;8.054;2022-10-16T04:51:57;2.05;;;0.95;;
35907;SDS011;22003;50.320;8.054;2022-10-16T04:54:22;1.25;;;0.88;;
35907;SDS011;22003;50.320;8.054;2022-10-16T04:56:47;2.83;;;0.70;;
35907;SDS011;22003;50.320;8.054;2022-10-16T04:59:15;1.40;;;1.08;;
35907;SDS011;22003;50.320;8.054;2022-10-16T05:01:40;2.60;;;0.68;;
35907;SDS011;22003;50.320;8.054;2022-10-16T05:04:05;2.10;;;0.80;;
35907;SDS011;22003;50.320;8.054;2022-10-16T05:06:30;1.73;;;0.60;;
35907;SDS011;22003;50.320;8.054;2022-10-16T05:08:55;3.57;;;0.90;;
35907;SDS011;22003;50.320;8.054;2022-10-16T05:11:20;4.38;;;1.10;;
35907;SDS011;22003;50.320;8.054;2022-10-16T05:13:45;1.53;;;1.10;;
35907;SDS011;22003;50.320;8.054;2022-10-16T05:16:11;4.78;;;1.05;;
35907;SDS011;22003;50.320;8.054;2022-10-16T05:18:36;1.88;;;0.68;;
35907;SDS011;22003;50.320;8.054;2022-10-16T05:21:01;5.57;;;1.23;;
35907;SDS011;22003;50.320;8.054;2022-10-16T05:23:26;2.33;;;0.90;;
35907;SDS011;22003;50.320;8.054;2022-10-16T05:25:55;3.97;;;1.10;;
35907;SDS011;22003;50.320;8.054;2022-10-16T05:28:22;2.95;;;0.63;;
35907;SDS011;22003;50.320;8.054;2022-10-16T05:30:48;1.90;;;1.20;;
35907;SDS011;22003;50.320;8.054;2022-10-16T05:33:13;2.13;;;1.00;;
35907;SDS011;22003;50.320;8.054;2022-10-16T05:35:38;3.03;;;1.33;;
35907;SDS011;22003;50.320;8.054;2022-10-16T05:38:03;2.22;;;0.82;;
35907;SDS011;22003;50.320;8.054;2022-10-16T05:40:28;1.23;;;0.70;;
35907;SDS011;22003;50.320;8.054;2022-10-16T05:42:56;1.00;;;0.90;;
35907;SDS011;22003;50.320;8.054;2022-10-16T05:45:21;2.40;;;0.75;;
35907;SDS011;22003;50.320;8.054;2022-10-16T05:47:47;1.93;;;0.90;;
35907;SDS011;22003;50.320;8.054;2022-10-16T05:50:12;5.60;;;0.80;;
35907;SDS011;22003;50.320;8.054;2022-10-16T05:52:37;2.60;;;0.60;;
35907;SDS011;22003;50.320;8.054;2022-10-16T05:55:02;5.28;;;0.90;;
35907;SDS011;22003;50.320;8.054;2022-10-16T05:57:28;5.28;;;1.13;;
35907;SDS011;22003;50.320;8.054;2022-10-16T05:59:53;3.43;;;0.97;;
35907;SDS011;22003;50.320;8.054;2022-10-16T06:02:18;0.70;;;0.70;;
35907;SDS011;22003;50.320;8.054;2022-10-16T06:04:43;1.15;;;0.88;;
35907;SDS011;22003;50.320;8.054;2022-10-16T06:07:08;1.97;;;0.90;;
35907;SDS011;22003;50.320;8.054;2022-10-16T06:09:34;1.30;;;0.90;;
35907;SDS011;22003;50.320;8.054;2022-10-16T06:11:59;2.17;;;0.93;;
35907;SDS011;22003;50.320;8.054;2022-10-16T06:14:24;1.30;;;0.80;;
35907;SDS011;22003;50.320;8.054;2022-10-16T06:16:49;0.83;;;0.60;;
35907;SDS011;22003;50.320;8.054;2022-10-16T06:19:14;0.75;;;0.60;;
35907;SDS011;22003;50.320;8.054;2022-10-16T06:21:41;1.95;;;1.45;;
35907;SDS011;22003;50.320;8.054;2022-10-16T06:24:06;3.40;;;1.08;;
35907;SDS011;22003;50.320;8.054;2022-10-16T06:26:31;2.35;;;0.60;;
35907;SDS011;22003;50.320;8.054;2022-10-16T06:28:58;4.37;;;0.97;;
35907;SDS011;22003;50.320;8.054;2022-10-16T06:31:23;1.92;;;1.17;;
35907;SDS011;22003;50.320;8.054;2022-10-16T06:33:52;2.15;;;1.50;;
35907;SDS011;22003;50.320;8.054;2022-10-16T06:36:18;1.23;;;1.10;;
35907;SDS011;22003;50.320;8.054;2022-10-16T06:38:44;2.03;;;1.08;;
35907;SDS011;22003;50.320;8.054;2022-10-16T06:41:10;1.45;;;1.10;;
35907;SDS011;22003;50.320;8.054;2022-10-16T06:43:36;4.97;;;1.60;;
35907;SDS011;22003;50.320;8.054;2022-10-16T06:46:02;4.80;;;1.00;;
35907;SDS011;22003;50.320;8.054;2022-10-16T06:48:27;1.70;;;1.10;;
35907;SDS011;22003;50.320;8.054;2022-10-16T06:51:00;2.05;;;1.45;;
35907;SDS011;22003;50.320;8.054;2022-10-16T06:53:25;1.10;;;1.00;;
35907;SDS011;22003;50.320;8.054;2022-10-16T06:55:51;2.33;;;1.67;;
35907;SDS011;22003;50.320;8.054;2022-10-16T06:58:16;4.80;;;1.47;;
35907;SDS011;22003;50.320;8.054;2022-10-16T07:00:41;3.73;;;1.10;;
35907;SDS011;22003;50.320;8.054;2022-10-16T07:03:06;3.50;;;1.53;;
35907;SDS011;22003;50.320;8.054;2022-10-16T07:05:31;3.15;;;1.33;;
35907;SDS011;22003;50.320;8.054;2022-10-16T07:07:57;3.15;;;1.50;;
35907;SDS011;22003;50.320;8.054;2022-10-16T07:10:22;7.85;;;1.63;;
35907;SDS011;22003;50.320;8.054;2022-10-16T07:12:49;2.75;;;1.52;;
35907;SDS011;22003;50.320;8.054;2022-10-16T07:15:14;1.55;;;1.45;;
35907;SDS011;22003;50.320;8.054;2022-10-16T07:17:39;2.58;;;1.25;;
35907;SDS011;22003;50.320;8.054;2022-10-16T07:20:04;2.67;;;1.35;;
35907;SDS011;22003;50.320;8.054;2022-10-16T07:22:29;4.60;;;1.50;;
35907;SDS011;22003;50.320;8.054;2022-10-16T07:24:55;4.50;;;1.30;;
35907;SDS011;22003;50.320;8.054;2022-10-16T07:27:20;3.42;;;1.08;;
35907;SDS011;22003;50.320;8.054;2022-10-16T07:29:48;5.03;;;1.25;;
35907;SDS011;22003;50.320;8.054;2022-10-16T07:32:13;3.63;;;1.40;;
35907;SDS011;22003;50.320;8.054;2022-10-16T07:34:39;1.20;;;1.10;;
35907;SDS011;22003;50.320;8.054;2022-10-16T07:37:04;2.10;;;1.50;;
35907;SDS011;22003;50.320;8.054;2022-10-16T07:39:29;4.70;;;1.70;;
35907;SDS011;22003;50.320;8.054;2022-10-16T07:41:54;3.20;;;1.88;;
35907;SDS011;22003;50.320;8.054;2022-10-16T07:44:20;5.25;;;1.73;;
35907;SDS011;22003;50.320;8.054;2022-10-16T07:46:45;1.93;;;1.60;;
35907;SDS011;22003;50.320;8.054;2022-10-16T07:49:10;1.50;;;1.40;;
35907;SDS011;22003;50.320;8.054;2022-10-16T07:51:36;2.67;;;1.40;;
35907;SDS011;22003;50.320;8.054;2022-10-16T07:54:03;2.72;;;2.15;;
35907;SDS011;22003;50.320;8.054;2022-10-16T07:56:28;3.08;;;2.17;;
35907;SDS011;22003;50.320;8.054;2022-10-16T07:58:55;1.63;;;1.50;;
35907;SDS011;22003;50.320;8.054;2022-10-16T08:01:21;1.70;;;1.50;;
35907;SDS011;22003;50.320;8.054;2022-10-16T08:03:47;2.97;;;2.20;;
35907;SDS011;22003;50.320;8.054;2022-10-16T08:06:13;3.38;;;2.10;;
35907;SDS011;22003;50.320;8.054;2022-10-16T08:08:38;3.60;;;1.60;;
35907;SDS011;22003;50.320;8.054;2022-10-16T08:11:04;2.45;;;1.58;;
35907;SDS011;22003;50.320;8.054;2022-10-16T08:13:29;2.50;;;1.30;;
35907;SDS011;22003;50.320;8.054;2022-10-16T08:15:54;2.05;;;1.75;;
35907;SDS011;22003;50.320;8.054;2022-10-16T08:18:20;3.85;;;1.90;;
35907;SDS011;22003;50.320;8.054;2022-10-16T08:20:45;6.43;;;2.10;;
35907;SDS011;22003;50.320;8.054;2022-10-16T08:23:11;2.45;;;1.40;;
35907;SDS011;22003;50.320;8.054;2022-10-16T08:25:36;2.28;;;1.10;;
35907;SDS011;22003;50.320;8.054;2022-10-16T08:28:05;5.70;;;1.30;;
35907;SDS011;22003;50.320;8.054;2022-10-16T08:30:31;3.17;;;1.35;;
35907;SDS011;22003;50.320;8.054;2022-10-16T08:32:56;2.63;;;1.40;;
35907;SDS011;22003;50.320;8.054;2022-10-16T08:35:23;2.13;;;1.40;;
35907;SDS011;22003;50.320;8.054;2022-10-16T08:37:48;1.38;;;0.70;;
35907;SDS011;22003;50.320;8.054;2022-10-16T08:40:26;2.28;;;1.00;;
35907;SDS011;22003;50.320;8.054;2022-10-16T08:45:49;1.52;;;1.25;;
35907;SDS011;22003;50.320;8.054;2022-10-16T08:48:22;0.52;;;0.52;;
35907;SDS011;22003;50.320;8.054;2022-10-16T08:50:51;2.25;;;0.70;;
35907;SDS011;22003;50.320;8.054;2022-10-16T08:53:40;1.10;;;0.80;;
35907;SDS011;22003;50.320;8.054;2022-10-16T08:56:02;1.52;;;0.85;;
35907;SDS011;22003;50.320;8.054;2022-10-16T08:58:28;3.67;;;1.30;;
35907;SDS011;22003;50.320;8.054;2022-10-16T09:00:54;6.60;;;1.30;;
35907;SDS011;22003;50.320;8.054;2022-10-16T09:05:49;5.80;;;1.20;;
35907;SDS011;22003;50.320;8.054;2022-10-16T09:08:38;0.68;;;0.68;;
35907;SDS011;22003;50.320;8.054;2022-10-16T09:11:23;1.73;;;1.30;;
35907;SDS011;22003;50.320;8.054;2022-10-16T09:13:51;4.82;;;0.90;;
35907;SDS011;22003;50.320;8.054;2022-10-16T09:16:29;0.85;;;0.65;;
35907;SDS011;22003;50.320;8.054;2022-10-16T09:21:43;1.15;;;0.70;;
35907;SDS011;22003;50.320;8.054;2022-10-16T09:24:16;2.90;;;0.90;;
35907;SDS011;22003;50.320;8.054;2022-10-16T09:26:42;4.45;;;1.65;;
35907;SDS011;22003;50.320;8.054;2022-10-16T09:29:10;3.40;;;2.20;;
35907;SDS011;22003;50.320;8.054;2022-10-16T09:31:36;3.33;;;1.25;;
35907;SDS011;22003;50.320;8.054;2022-10-16T09:34:02;1.10;;;0.75;;
35907;SDS011;22003;50.320;8.054;2022-10-16T09:36:32;0.50;;;0.50;;
35907;SDS011;22003;50.320;8.054;2022-10-16T09:39:11;1.65;;;0.88;;
35907;SDS011;22003;50.320;8.054;2022-10-16T09:41:37;1.42;;;0.80;;
35907;SDS011;22003;50.320;8.054;2022-10-16T09:44:04;2.90;;;0.70;;
35907;SDS011;22003;50.320;8.054;2022-10-16T09:46:32;2.08;;;0.50;;
35907;SDS011;22003;50.320;8.054;2022-10-16T09:48:59;0.63;;;0.57;;
35907;SDS011;22003;50.320;8.054;2022-10-16T09:51:26;0.85;;;0.47;;
35907;SDS011;22003;50.320;8.054;2022-10-16T09:53:56;1.08;;;0.68;;
35907;SDS011;22003;50.320;8.054;2022-10-16T09:56:23;0.68;;;0.40;;
35907;SDS011;22003;50.320;8.054;2022-10-16T09:58:55;0.30;;;0.30;;
35907;SDS011;22003;50.320;8.054;2022-10-16T10:01:21;2.47;;;1.02;;
35907;SDS011;22003;50.320;8.054;2022-10-16T10:03:47;2.00;;;1.57;;
35907;SDS011;22003;50.320;8.054;2022-10-16T10:06:16;2.22;;;1.30;;
35907;SDS011;22003;50.320;8.054;2022-10-16T10:11:07;3.22;;;0.45;;
35907;SDS011;22003;50.320;8.054;2022-10-16T10:13:32;1.57;;;0.77;;
35907;SDS011;22003;50.320;8.054;2022-10-16T10:15:57;0.70;;;0.50;;
35907;SDS011;22003;50.320;8.054;2022-10-16T10:18:22;1.67;;;1.20;;
35907;SDS011;22003;50.320;8.054;2022-10-16T10:20:58;1.52;;;0.57;;
35907;SDS011;22003;50.320;8.054;2022-10-16T10:23:25;1.90;;;0.32;;
35907;SDS011;22003;50.320;8.054;2022-10-16T10:25:53;2.78;;;0.20;;
35907;SDS011;22003;50.320;8.054;2022-10-16T10:31:06;0.93;;;0.33;;
35907;SDS011;22003;50.320;8.054;2022-10-16T10:41:07;3.50;;;0.32;;
35907;SDS011;22003;50.320;8.054;2022-10-16T10:43:50;1.90;;;0.28;;
35907;SDS011;22003;50.320;8.054;2022-10-16T10:51:31;0.50;;;0.40;;
35907;SDS011;22003;50.320;8.054;2022-10-16T10:54:05;0.30;;;0.10;;
35907;SDS011;22003;50.320;8.054;2022-10-16T10:57:20;1.60;;;0.20;;
35907;SDS011;22003;50.320;8.054;2022-10-16T11:02:15;0.50;;;0.30;;
35907;SDS011;22003;50.320;8.054;2022-10-16T11:07:15;0.50;;;0.40;;
35907;SDS011;22003;50.320;8.054;2022-10-16T11:09:49;0.45;;;0.20;;
35907;SDS011;22003;50.320;8.054;2022-10-16T11:17:30;1.67;;;0.73;;
35907;SDS011;22003;50.320;8.054;2022-10-16T11:20:02;0.82;;;0.47;;
35907;SDS011;22003;50.320;8.054;2022-10-16T11:30:06;0.65;;;0.30;;
35907;SDS011;22003;50.320;8.054;2022-10-16T11:32:56;0.35;;;0.20;;
35907;SDS011;22003;50.320;8.054;2022-10-16T11:35:30;1.92;;;0.60;;
35907;SDS011;22003;50.320;8.054;2022-10-16T11:37:57;0.05;;;0.05;;
35907;SDS011;22003;50.320;8.054;2022-10-16T11:40:28;0.28;;;0.17;;
35907;SDS011;22003;50.320;8.054;2022-10-16T11:43:00;0.88;;;0.22;;
35907;SDS011;22003;50.320;8.054;2022-10-16T11:45:34;0.63;;;0.60;;
35907;SDS011;22003;50.320;8.054;2022-10-16T11:53:23;0.20;;;0.20;;
35907;SDS011;22003;50.320;8.054;2022-10-16T11:55:51;0.65;;;0.30;;
35907;SDS011;22003;50.320;8.054;2022-10-16T11:58:30;0.20;;;0.20;;
35907;SDS011;22003;50.320;8.054;2022-10-16T12:03:43;0.28;;;0.00;;
35907;SDS011;22003;50.320;8.054;2022-10-16T12:08:54;0.08;;;0.08;;
35907;SDS011;22003;50.320;8.054;2022-10-16T12:14:03;1.98;;;0.13;;
35907;SDS011;22003;50.320;8.054;2022-10-16T12:16:29;1.25;;;0.38;;
35907;SDS011;22003;50.320;8.054;2022-10-16T12:19:13;0.47;;;0.20;;
35907;SDS011;22003;50.320;8.054;2022-10-16T12:21:39;0.85;;;0.55;;
35907;SDS011;22003;50.320;8.054;2022-10-16T12:24:05;0.80;;;0.52;;
35907;SDS011;22003;50.320;8.054;2022-10-16T12:26:34;1.70;;;0.40;;
35907;SDS011;22003;50.320;8.054;2022-10-16T12:29:13;0.20;;;0.10;;
35907;SDS011;22003;50.320;8.054;2022-10-16T12:31:42;0.65;;;0.30;;
35907;SDS011;22003;50.320;8.054;2022-10-16T12:34:14;0.75;;;0.20;;
35907;SDS011;22003;50.320;8.054;2022-10-16T12:36:45;0.45;;;0.32;;
35907;SDS011;22003;50.320;8.054;2022-10-16T12:39:16;1.35;;;0.30;;
35907;SDS011;22003;50.320;8.054;2022-10-16T12:41:45;1.77;;;0.20;;
35907;SDS011;22003;50.320;8.054;2022-10-16T12:44:25;0.87;;;0.30;;
35907;SDS011;22003;50.320;8.054;2022-10-16T12:46:53;0.30;;;0.22;;
35907;SDS011;22003;50.320;8.054;2022-10-16T12:49:23;0.17;;;0.17;;
35907;SDS011;22003;50.320;8.054;2022-10-16T12:51:54;0.35;;;0.30;;
35907;SDS011;22003;50.320;8.054;2022-10-16T12:54:35;0.25;;;0.20;;
35907;SDS011;22003;50.320;8.054;2022-10-16T12:57:09;1.42;;;0.13;;
35907;SDS011;22003;50.320;8.054;2022-10-16T13:07:21;0.55;;;0.30;;
35907;SDS011;22003;50.320;8.054;2022-10-16T13:12:36;0.82;;;0.28;;
35907;SDS011;22003;50.320;8.054;2022-10-16T13:15:52;0.93;;;0.28;;
35907;SDS011;22003;50.320;8.054;2022-10-16T13:21:16;0.40;;;0.40;;
35907;SDS011;22003;50.320;8.054;2022-10-16T13:23:26;0.50;;;0.50;;
35907;SDS011;22003;50.320;8.054;2022-10-16T13:28:21;2.60;;;1.02;;
35907;SDS011;22003;50.320;8.054;2022-10-16T13:30:53;1.83;;;1.05;;
35907;SDS011;22003;50.320;8.054;2022-10-16T13:33:21;1.20;;;1.10;;
35907;SDS011;22003;50.320;8.054;2022-10-16T13:35:50;1.35;;;1.00;;
35907;SDS011;22003;50.320;8.054;2022-10-16T13:38:17;1.20;;;0.98;;
35907;SDS011;22003;50.320;8.054;2022-10-16T13:40:59;2.30;;;1.10;;
35907;SDS011;22003;50.320;8.054;2022-10-16T13:43:27;3.53;;;1.23;;
35907;SDS011;22003;50.320;8.054;2022-10-16T13:45:53;1.67;;;0.95;;
35907;SDS011;22003;50.320;8.054;2022-10-16T13:48:19;1.38;;;1.13;;
35907;SDS011;22003;50.320;8.054;2022-10-16T13:50:44;1.73;;;1.15;;
35907;SDS011;22003;50.320;8.054;2022-10-16T13:53:12;1.47;;;0.80;;
35907;SDS011;22003;50.320;8.054;2022-10-16T13:55:38;2.08;;;1.42;;
35907;SDS011;22003;50.320;8.054;2022-10-16T13:58:13;1.90;;;0.93;;
35907;SDS011;22003;50.320;8.054;2022-10-16T14:00:39;1.52;;;1.25;;
35907;SDS011;22003;50.320;8.054;2022-10-16T14:03:05;1.48;;;1.30;;
35907;SDS011;22003;50.320;8.054;2022-10-16T14:05:31;1.13;;;1.03;;
35907;SDS011;22003;50.320;8.054;2022-10-16T14:07:57;1.70;;;1.60;;
35907;SDS011;22003;50.320;8.054;2022-10-16T14:10:24;1.58;;;1.23;;
35907;SDS011;22003;50.320;8.054;2022-10-16T14:12:54;1.63;;;1.52;;
35907;SDS011;22003;50.320;8.054;2022-10-16T14:15:20;1.50;;;1.40;;
35907;SDS011;22003;50.320;8.054;2022-10-16T14:17:45;1.80;;;1.57;;
35907;SDS011;22003;50.320;8.054;2022-10-16T14:20:14;2.70;;;1.60;;
35907;SDS011;22003;50.320;8.054;2022-10-16T14:27:43;3.22;;;1.58;;
35907;SDS011;22003;50.320;8.054;2022-10-16T14:30:16;2.00;;;1.70;;
35907;SDS011;22003;50.320;8.054;2022-10-16T14:32:42;1.70;;;1.55;;
35907;SDS011;22003;50.320;8.054;2022-10-16T14:35:29;3.55;;;1.45;;
35907;SDS011;22003;50.320;8.054;2022-10-16T14:37:53;2.97;;;1.92;;
35907;SDS011;22003;50.320;8.054;2022-10-16T14:40:19;1.70;;;1.55;;
35907;SDS011;22003;50.320;8.054;2022-10-16T14:42:45;1.58;;;1.33;;
35907;SDS011;22003;50.320;8.054;2022-10-16T14:45:10;2.00;;;1.42;;
35907;SDS011;22003;50.320;8.054;2022-10-16T14:47:36;2.40;;;1.70;;
35907;SDS011;22003;50.320;8.054;2022-10-16T14:50:09;1.75;;;1.35;;
35907;SDS011;22003;50.320;8.054;2022-10-16T14:52:35;1.37;;;1.27;;
35907;SDS011;22003;50.320;8.054;2022-10-16T14:55:00;1.30;;;1.20;;
35907;SDS011;22003;50.320;8.054;2022-10-16T14:57:26;4.25;;;1.75;;
35907;SDS011;22003;50.320;8.054;2022-10-16T14:59:52;2.40;;;2.17;;
35907;SDS011;22003;50.320;8.054;2022-10-16T15:04:46;2.40;;;1.50;;
35907;SDS011;22003;50.320;8.054;2022-10-16T15:07:12;1.58;;;1.17;;
35907;SDS011;22003;50.320;8.054;2022-10-16T15:09:37;2.08;;;1.48;;
35907;SDS011;22003;50.320;8.054;2022-10-16T15:12:02;5.25;;;1.42;;
35907;SDS011;22003;50.320;8.054;2022-10-16T15:14:28;1.50;;;1.30;;
35907;SDS011;22003;50.320;8.054;2022-10-16T15:16:53;3.63;;;1.73;;
35907;SDS011;22003;50.320;8.054;2022-10-16T15:19:18;1.60;;;1.50;;
35907;SDS011;22003;50.320;8.054;2022-10-16T15:21:43;1.33;;;1.17;;
35907;SDS011;22003;50.320;8.054;2022-10-16T15:24:09;4.22;;;1.73;;
35907;SDS011;22003;50.320;8.054;2022-10-16T15:26:36;1.70;;;1.27;;
35907;SDS011;22003;50.320;8.054;2022-10-16T15:29:01;1.70;;;1.50;;
35907;SDS011;22003;50.320;8.054;2022-10-16T15:31:26;2.50;;;1.47;;
35907;SDS011;22003;50.320;8.054;2022-10-16T15:33:52;5.10;;;4.37;;
35907;SDS011;22003;50.320;8.054;2022-10-16T15:38:44;6.75;;;5.88;;
35907;SDS011;22003;50.320;8.054;2022-10-16T15:41:10;4.10;;;3.70;;
35907;SDS011;22003;50.320;8.054;2022-10-16T15:43:35;6.45;;;3.00;;
35907;SDS011;22003;50.320;8.054;2022-10-16T15:46:02;5.22;;;2.70;;
35907;SDS011;22003;50.320;8.054;2022-10-16T15:48:28;2.88;;;2.10;;
35907;SDS011;22003;50.320;8.054;2022-10-16T15:50:53;3.38;;;1.95;;
35907;SDS011;22003;50.320;8.054;2022-10-16T15:53:18;3.03;;;1.90;;
35907;SDS011;22003;50.320;8.054;2022-10-16T15:55:43;2.47;;;1.48;;
35907;SDS011;22003;50.320;8.054;2022-10-16T15:58:08;4.73;;;2.20;;
35907;SDS011;22003;50.320;8.054;2022-10-16T16:00:34;9.93;;;2.70;;
35907;SDS011;22003;50.320;8.054;2022-10-16T16:02:59;2.93;;;2.00;;
35907;SDS011;22003;50.320;8.054;2022-10-16T16:05:24;3.23;;;1.83;;
35907;SDS011;22003;50.320;8.054;2022-10-16T16:07:49;5.15;;;1.77;;
35907;SDS011;22003;50.320;8.054;2022-10-16T16:10:15;3.42;;;1.73;;
35907;SDS011;22003;50.320;8.054;2022-10-16T16:12:40;3.45;;;2.15;;
35907;SDS011;22003;50.320;8.054;2022-10-16T16:15:06;4.68;;;2.20;;
35907;SDS011;22003;50.320;8.054;2022-10-16T16:17:32;3.78;;;2.00;;
35907;SDS011;22003;50.320;8.054;2022-10-16T16:19:57;4.55;;;1.90;;
35907;SDS011;22003;50.320;8.054;2022-10-16T16:22:22;2.53;;;1.70;;
35907;SDS011;22003;50.320;8.054;2022-10-16T16:24:47;3.53;;;1.80;;
35907;SDS011;22003;50.320;8.054;2022-10-16T16:27:13;5.07;;;2.27;;
35907;SDS011;22003;50.320;8.054;2022-10-16T16:29:38;4.82;;;2.53;;
35907;SDS011;22003;50.320;8.054;2022-10-16T16:32:03;6.80;;;2.40;;
35907;SDS011;22003;50.320;8.054;2022-10-16T16:34:29;4.07;;;3.20;;
35907;SDS011;22003;50.320;8.054;2022-10-16T16:36:54;9.55;;;5.38;;
35907;SDS011;22003;50.320;8.054;2022-10-16T16:39:20;10.80;;;7.50;;
35907;SDS011;22003;50.320;8.054;2022-10-16T16:41:45;8.25;;;4.72;;
35907;SDS011;22003;50.320;8.054;2022-10-16T16:44:11;13.27;;;6.63;;
35907;SDS011;22003;50.320;8.054;2022-10-16T16:46:36;12.77;;;6.57;;
35907;SDS011;22003;50.320;8.054;2022-10-16T16:49:03;17.75;;;7.57;;
35907;SDS011;22003;50.320;8.054;2022-10-16T16:51:29;14.30;;;7.20;;
35907;SDS011;22003;50.320;8.054;2022-10-16T16:53:54;14.23;;;7.80;;
35907;SDS011;22003;50.320;8.054;2022-10-16T16:56:20;9.35;;;5.95;;
35907;SDS011;22003;50.320;8.054;2022-10-16T16:58:49;12.32;;;6.43;;
35907;SDS011;22003;50.320;8.054;2022-10-16T17:01:15;12.93;;;7.20;;
35907;SDS011;22003;50.320;8.054;2022-10-16T17:03:41;11.15;;;6.82;;
35907;SDS011;22003;50.320;8.054;2022-10-16T17:06:09;13.88;;;8.25;;
35907;SDS011;22003;50.320;8.054;2022-10-16T17:08:34;21.45;;;10.38;;
35907;SDS011;22003;50.320;8.054;2022-10-16T17:11:00;13.48;;;6.95;;
35907;SDS011;22003;50.320;8.054;2022-10-16T17:13:27;10.60;;;6.35;;
35907;SDS011;22003;50.320;8.054;2022-10-16T17:15:52;15.47;;;7.10;;
35907;SDS011;22003;50.320;8.054;2022-10-16T17:18:18;11.05;;;7.07;;
35907;SDS011;22003;50.320;8.054;2022-10-16T17:20:44;8.25;;;5.38;;
35907;SDS011;22003;50.320;8.054;2022-10-16T17:23:09;11.75;;;6.15;;
35907;SDS011;22003;50.320;8.054;2022-10-16T17:25:36;11.48;;;5.88;;
35907;SDS011;22003;50.320;8.054;2022-10-16T17:28:01;11.40;;;5.65;;
35907;SDS011;22003;50.320;8.054;2022-10-16T17:30:26;13.95;;;6.55;;
35907;SDS011;22003;50.320;8.054;2022-10-16T17:32:52;11.45;;;7.13;;
35907;SDS011;22003;50.320;8.054;2022-10-16T17:35:17;12.77;;;6.60;;
35907;SDS011;22003;50.320;8.054;2022-10-16T17:37:42;12.03;;;6.70;;
35907;SDS011;22003;50.320;8.054;2022-10-16T17:40:07;9.55;;;7.38;;
35907;SDS011;22003;50.320;8.054;2022-10-16T17:42:33;10.48;;;6.95;;
35907;SDS011;22003;50.320;8.054;2022-10-16T17:44:58;10.93;;;6.00;;
35907;SDS011;22003;50.320;8.054;2022-10-16T17:47:23;11.23;;;7.63;;
35907;SDS011;22003;50.320;8.054;2022-10-16T17:49:48;16.50;;;10.13;;
35907;SDS011;22003;50.320;8.054;2022-10-16T17:52:15;14.73;;;7.85;;
35907;SDS011;22003;50.320;8.054;2022-10-16T17:54:40;12.23;;;7.90;;
35907;SDS011;22003;50.320;8.054;2022-10-16T17:57:05;33.67;;;14.05;;
35907;SDS011;22003;50.320;8.054;2022-10-16T17:59:30;21.10;;;11.65;;
35907;SDS011;22003;50.320;8.054;2022-10-16T18:01:56;33.10;;;13.93;;
35907;SDS011;22003;50.320;8.054;2022-10-16T18:04:21;21.07;;;9.47;;
35907;SDS011;22003;50.320;8.054;2022-10-16T18:06:46;21.25;;;8.82;;
35907;SDS011;22003;50.320;8.054;2022-10-16T18:09:13;14.43;;;8.00;;